createdAt,value
2018-09-22T00:00:01.525Z,99780.67
2018-09-22T00:00:32.631Z,99772.86
2018-09-22T00:01:03.741Z,99778.59
2018-09-22T00:01:34.940Z,99783.46
2018-09-22T00:02:06.154Z,99779.20
2018-09-22T00:02:37.260Z,99778.33
2018-09-22T00:03:08.383Z,99781.88
2018-09-22T00:03:39.585Z,99780.72
2018-09-22T00:04:10.753Z,99782.19
2018-09-22T00:04:41.878Z,99783.62
2018-09-22T00:05:13.006Z,99781.39
2018-09-22T00:05:44.123Z,99779.20
2018-09-22T00:06:15.279Z,99780.08
2018-09-22T00:06:46.393Z,99777.37
2018-09-22T00:07:17.526Z,99776.57
2018-09-22T00:07:48.636Z,99777.45
2018-09-22T00:08:19.764Z,99782.83
2018-09-22T00:08:50.868Z,99776.81
2018-09-22T00:09:22.028Z,99777.41
2018-09-22T00:09:53.136Z,99776.53
2018-09-22T00:10:24.243Z,99777.16
2018-09-22T00:10:55.359Z,99777.60
2018-09-22T00:11:26.528Z,99775.49
2018-09-22T00:11:57.722Z,99779.08
2018-09-22T00:12:28.861Z,99778.13
2018-09-22T00:13:00.043Z,99776.81
2018-09-22T00:13:31.191Z,99775.49
2018-09-22T00:14:02.343Z,99776.29
2018-09-22T00:14:33.470Z,99777.36
2018-09-22T00:15:04.636Z,99771.86
2018-09-22T00:15:35.739Z,99777.63
2018-09-22T00:16:06.902Z,99780.66
2018-09-22T00:16:38.074Z,99773.77
2018-09-22T00:17:09.176Z,99775.53
2018-09-22T00:17:40.306Z,99777.75
2018-09-22T00:18:11.405Z,99773.97
2018-09-22T00:18:42.507Z,99782.38
2018-09-22T00:19:13.616Z,99784.16
2018-09-22T00:19:44.721Z,99749.56
2018-09-22T00:20:15.892Z,99774.23
2018-09-22T00:20:46.999Z,99783.95
2018-09-22T00:21:18.139Z,99777.06
2018-09-22T00:21:49.366Z,99783.71
2018-09-22T00:22:20.473Z,99784.70
2018-09-22T00:22:51.629Z,99787.41
2018-09-22T00:23:22.804Z,99783.47
2018-09-22T00:23:53.899Z,99787.92
2018-09-22T00:24:25.030Z,99782.34
2018-09-22T00:24:56.129Z,99784.17
2018-09-22T00:25:27.231Z,99787.75
2018-09-22T00:25:58.394Z,99785.71
2018-09-22T00:26:29.503Z,99786.23
2018-09-22T00:27:00.630Z,99787.22
2018-09-22T00:27:31.739Z,99786.89
2018-09-22T00:28:02.914Z,99786.09
2018-09-22T00:28:34.044Z,99785.65
2018-09-22T00:29:05.240Z,99783.46
2018-09-22T00:29:36.376Z,99783.53
2018-09-22T00:30:07.539Z,99783.46
2018-09-22T00:30:38.659Z,99782.63
2018-09-22T00:31:09.778Z,99783.53
2018-09-22T00:31:40.888Z,99781.38
2018-09-22T00:32:11.991Z,99787.00
2018-09-22T00:32:43.110Z,99778.75
2018-09-22T00:33:14.269Z,99773.02
2018-09-22T00:33:45.379Z,99776.64
2018-09-22T00:34:16.597Z,99776.56
2018-09-22T00:34:47.702Z,99775.18
2018-09-22T00:35:18.815Z,99777.77
2018-09-22T00:35:49.915Z,99775.06
2018-09-22T00:36:21.085Z,99774.98
2018-09-22T00:36:52.301Z,99774.52
2018-09-22T00:37:23.427Z,99775.83
2018-09-22T00:37:54.547Z,99771.52
2018-09-22T00:38:25.712Z,99767.25
2018-09-22T00:38:56.846Z,99772.11
2018-09-22T00:39:28.079Z,99771.70
2018-09-22T00:39:59.254Z,99771.78
2018-09-22T00:40:30.370Z,99766.64
2018-09-22T00:41:01.474Z,99767.52
2018-09-22T00:41:32.633Z,99765.22
2018-09-22T00:42:03.861Z,99769.92
2018-09-22T00:42:35.069Z,99762.98
2018-09-22T00:43:06.179Z,99766.13
2018-09-22T00:43:37.302Z,99767.84
2018-09-22T00:44:08.395Z,99770.98
2018-09-22T00:44:39.484Z,99769.20
2018-09-22T00:45:10.638Z,99775.91
2018-09-22T00:45:41.800Z,99765.48
2018-09-22T00:46:12.908Z,99772.16
2018-09-22T00:46:44.062Z,99767.02
2018-09-22T00:47:15.172Z,99766.22
2018-09-22T00:47:46.271Z,99763.74
2018-09-22T00:48:17.435Z,99764.58
2018-09-22T00:48:48.620Z,99760.16
2018-09-22T00:49:19.784Z,99766.22
2018-09-22T00:49:51.044Z,99763.52
2018-09-22T00:50:22.163Z,99762.56
2018-09-22T00:50:53.266Z,99764.35
2018-09-22T00:51:24.391Z,99762.56
2018-09-22T00:51:55.517Z,99759.09
2018-09-22T00:52:26.637Z,99764.80
2018-09-22T00:52:57.780Z,99760.34
2018-09-22T00:53:28.888Z,99758.22
2018-09-22T00:53:59.992Z,99761.25
2018-09-22T00:54:31.104Z,99764.80
2018-09-22T00:55:02.304Z,99761.73
2018-09-22T00:55:33.431Z,99759.94
2018-09-22T00:56:04.602Z,99755.55
2018-09-22T00:56:35.772Z,99757.67
2018-09-22T00:57:06.928Z,99758.91
2018-09-22T00:57:38.035Z,99758.91
2018-09-22T00:58:09.154Z,99754.56
2018-09-22T00:58:40.259Z,99754.56
2018-09-22T00:59:11.437Z,99756.28
2018-09-22T00:59:42.551Z,99755.88
2018-09-22T01:00:13.687Z,99758.44
2018-09-22T01:00:44.802Z,99755.48
2018-09-22T01:01:16.024Z,99757.27
2018-09-22T01:01:47.131Z,99753.77
2018-09-22T01:02:18.289Z,99753.37
2018-09-22T01:02:49.409Z,99754.69
2018-09-22T01:03:20.589Z,99760.73
2018-09-22T01:03:51.744Z,99722.95
2018-09-22T01:04:22.864Z,99755.73
2018-09-22T01:04:53.983Z,99757.00
2018-09-22T01:05:25.149Z,99756.94
2018-09-22T01:05:56.346Z,99754.81
2018-09-22T01:06:27.464Z,99758.84
2018-09-22T01:06:58.576Z,99762.85
2018-09-22T01:07:29.694Z,99759.83
2018-09-22T01:08:00.849Z,99757.20
2018-09-22T01:08:31.987Z,99762.45
2018-09-22T01:09:03.132Z,99758.58
2018-09-22T01:09:34.268Z,99757.20
2018-09-22T01:10:05.367Z,99757.20
2018-09-22T01:10:36.540Z,99760.73
2018-09-22T01:11:07.679Z,99758.51
2018-09-22T01:11:38.782Z,99757.20
2018-09-22T01:12:09.893Z,99759.02
2018-09-22T01:12:41.011Z,99763.36
2018-09-22T01:13:12.107Z,99758.91
2018-09-22T01:13:43.210Z,99759.67
2018-09-22T01:14:14.324Z,99760.55
2018-09-22T01:14:45.521Z,99759.67
2018-09-22T01:15:16.665Z,99761.94
2018-09-22T01:15:47.795Z,99763.62
2018-09-22T01:16:18.943Z,99761.86
2018-09-22T01:16:50.055Z,99764.93
2018-09-22T01:17:21.159Z,99764.89
2018-09-22T01:17:52.321Z,99764.02
2018-09-22T01:18:23.459Z,99766.13
2018-09-22T01:18:54.632Z,99762.59
2018-09-22T01:19:25.784Z,99766.92
2018-09-22T01:19:56.947Z,99773.34
2018-09-22T01:20:28.117Z,99761.01
2018-09-22T01:20:59.220Z,99765.67
2018-09-22T01:21:30.341Z,99759.94
2018-09-22T01:22:01.474Z,99767.75
2018-09-22T01:22:32.586Z,99760.34
2018-09-22T01:23:03.689Z,99763.69
2018-09-22T01:23:34.864Z,99765.92
2018-09-22T01:24:05.991Z,99764.68
2018-09-22T01:24:37.728Z,99760.02
2018-09-22T01:25:08.866Z,99767.17
2018-09-22T01:25:40.012Z,99760.61
2018-09-22T01:26:11.284Z,99759.37
2018-09-22T01:26:42.469Z,99763.35
2018-09-22T01:27:13.603Z,99764.30
2018-09-22T01:27:44.754Z,99763.90
2018-09-22T01:28:15.911Z,99769.16
2018-09-22T01:28:47.217Z,99764.74
2018-09-22T01:29:18.385Z,99768.24
2018-09-22T01:29:49.502Z,99760.88
2018-09-22T01:30:20.608Z,99760.40
2018-09-22T01:30:51.719Z,99763.10
2018-09-22T01:31:22.827Z,99762.30
2018-09-22T01:31:53.933Z,99757.99
2018-09-22T01:32:25.039Z,99762.38
2018-09-22T01:32:56.192Z,99759.83
2018-09-22T01:33:27.361Z,99759.89
2018-09-22T01:33:58.721Z,99757.83
2018-09-22T01:34:29.855Z,99757.31
2018-09-22T01:35:01.333Z,99759.09
2018-09-22T01:35:32.448Z,99768.69
2018-09-22T01:36:03.605Z,99762.97
2018-09-22T01:36:34.759Z,99762.56
2018-09-22T01:37:05.865Z,99768.30
2018-09-22T01:37:37.003Z,99762.13
2018-09-22T01:38:08.100Z,99759.94
2018-09-22T01:38:39.259Z,99763.52
2018-09-22T01:39:10.412Z,99763.48
2018-09-22T01:39:41.518Z,99759.98
2018-09-22T01:40:12.624Z,99760.81
2018-09-22T01:40:43.792Z,99762.45
2018-09-22T01:41:14.908Z,99763.17
2018-09-22T01:41:46.012Z,99761.72
2018-09-22T01:42:17.177Z,99757.33
2018-09-22T01:42:48.343Z,99761.12
2018-09-22T01:43:19.458Z,99761.92
2018-09-22T01:43:50.554Z,99764.48
2018-09-22T01:44:21.746Z,99761.38
2018-09-22T01:44:52.883Z,99759.81
2018-09-22T01:45:23.995Z,99766.86
2018-09-22T01:45:55.169Z,99758.09
2018-09-22T01:46:26.365Z,99763.35
2018-09-22T01:46:57.467Z,99757.73
2018-09-22T01:47:28.571Z,99760.80
2018-09-22T01:47:59.701Z,99757.73
2018-09-22T01:48:30.830Z,99764.81
2018-09-22T01:49:01.996Z,99760.88
2018-09-22T01:49:33.164Z,99756.94
2018-09-22T01:50:04.325Z,99759.41
2018-09-22T01:50:35.478Z,99757.98
2018-09-22T01:51:06.638Z,99761.84
2018-09-22T01:51:37.770Z,99762.32
2018-09-22T01:52:08.925Z,99753.12
2018-09-22T01:52:40.059Z,99760.94
2018-09-22T01:53:11.208Z,99756.11
2018-09-22T01:53:42.313Z,99757.91
2018-09-22T01:54:13.468Z,99761.05
2018-09-22T01:54:44.603Z,99753.64
2018-09-22T01:55:15.797Z,99754.48
2018-09-22T01:55:46.937Z,99754.16
2018-09-22T01:56:18.035Z,99756.34
2018-09-22T01:56:49.132Z,99753.23
2018-09-22T01:57:20.226Z,99754.55
2018-09-22T01:57:51.441Z,99756.27
2018-09-22T01:58:22.551Z,99750.77
2018-09-22T01:58:53.704Z,99752.98
2018-09-22T01:59:24.872Z,99757.52
2018-09-22T01:59:55.977Z,99751.03
2018-09-22T02:00:27.126Z,99754.17
2018-09-22T02:00:58.307Z,99750.34
2018-09-22T02:01:29.407Z,99746.98
2018-09-22T02:02:00.605Z,99752.76
2018-09-22T02:02:31.730Z,99751.59
2018-09-22T02:03:02.827Z,99752.91
2018-09-22T02:03:33.945Z,99757.44
2018-09-22T02:04:05.102Z,99753.49
2018-09-22T02:04:36.223Z,99762.14
2018-09-22T02:05:07.332Z,99755.97
2018-09-22T02:05:38.469Z,99756.38
2018-09-22T02:06:09.582Z,99763.02
2018-09-22T02:06:40.714Z,99762.69
2018-09-22T02:07:11.937Z,99766.23
2018-09-22T02:07:43.037Z,99761.05
2018-09-22T02:08:14.234Z,99759.77
2018-09-22T02:08:45.352Z,99757.55
2018-09-22T02:09:16.514Z,99764.11
2018-09-22T02:09:47.610Z,99760.58
2018-09-22T02:10:18.710Z,99761.41
2018-09-22T02:10:49.806Z,99762.80
2018-09-22T02:11:20.905Z,99760.58
2018-09-22T02:11:52.037Z,99764.91
2018-09-22T02:12:23.138Z,99757.47
2018-09-22T02:12:54.283Z,99757.47
2018-09-22T02:13:25.392Z,99755.80
2018-09-22T02:13:56.495Z,99755.83
2018-09-22T02:14:27.601Z,99756.81
2018-09-22T02:14:58.791Z,99759.98
2018-09-22T02:15:29.896Z,99762.66
2018-09-22T02:16:01.000Z,99760.17
2018-09-22T02:16:32.092Z,99758.46
2018-09-22T02:17:03.192Z,99766.81
2018-09-22T02:17:34.294Z,99752.41
2018-09-22T02:18:05.395Z,99758.20
2018-09-22T02:18:36.515Z,99762.91
2018-09-22T02:19:07.631Z,99759.12
2018-09-22T02:19:38.761Z,99763.97
2018-09-22T02:20:09.909Z,99759.77
2018-09-22T02:20:41.035Z,99764.15
2018-09-22T02:21:12.131Z,99766.01
2018-09-22T02:21:43.233Z,99762.58
2018-09-22T02:22:14.334Z,99763.16
2018-09-22T02:22:45.435Z,99760.20
2018-09-22T02:23:16.534Z,99765.53
2018-09-22T02:23:47.631Z,99766.51
2018-09-22T02:24:18.735Z,99764.33
2018-09-22T02:24:49.830Z,99761.33
2018-09-22T02:25:20.979Z,99763.48
2018-09-22T02:25:52.089Z,99763.01
2018-09-22T02:26:23.226Z,99767.49
2018-09-22T02:26:54.346Z,99772.34
2018-09-22T02:27:25.438Z,99763.66
2018-09-22T02:27:56.562Z,99761.58
2018-09-22T02:28:27.661Z,99765.55
2018-09-22T02:28:58.745Z,99763.00
2018-09-22T02:29:29.867Z,99766.16
2018-09-22T02:30:00.995Z,99769.30
2018-09-22T02:30:32.136Z,99767.18
2018-09-22T02:31:03.248Z,99766.41
2018-09-22T02:31:34.345Z,99769.94
2018-09-22T02:32:05.513Z,99764.80
2018-09-22T02:32:36.650Z,99767.97
2018-09-22T02:33:07.752Z,99764.20
2018-09-22T02:33:38.970Z,99768.98
2018-09-22T02:34:10.102Z,99769.38
2018-09-22T02:34:41.207Z,99765.01
2018-09-22T02:35:12.314Z,99769.38
2018-09-22T02:35:43.459Z,99769.78
2018-09-22T02:36:14.574Z,99771.56
2018-09-22T02:36:45.740Z,99772.55
2018-09-22T02:37:16.851Z,99770.43
2018-09-22T02:37:47.956Z,99773.89
2018-09-22T02:38:19.090Z,99776.08
2018-09-22T02:38:50.258Z,99768.20
2018-09-22T02:39:21.358Z,99771.17
2018-09-22T02:39:52.459Z,99770.30
2018-09-22T02:40:23.560Z,99767.16
2018-09-22T02:40:54.702Z,99772.48
2018-09-22T02:41:25.872Z,99769.78
2018-09-22T02:41:56.974Z,99769.31
2018-09-22T02:42:28.076Z,99767.09
2018-09-22T02:42:59.187Z,99767.02
2018-09-22T02:43:30.355Z,99766.11
2018-09-22T02:44:01.471Z,99769.61
2018-09-22T02:44:32.581Z,99764.80
2018-09-22T02:45:03.707Z,99762.98
2018-09-22T02:45:34.813Z,99762.98
2018-09-22T02:46:05.962Z,99767.31
2018-09-22T02:46:37.072Z,99767.76
2018-09-22T02:47:08.167Z,99766.45
2018-09-22T02:47:39.272Z,99764.77
2018-09-22T02:48:10.372Z,99763.38
2018-09-22T02:48:41.472Z,99765.87
2018-09-22T02:49:12.571Z,99761.42
2018-09-22T02:49:43.721Z,99770.94
2018-09-22T02:50:14.897Z,99772.59
2018-09-22T02:50:46.013Z,99770.80
2018-09-22T02:51:17.178Z,99769.45
2018-09-22T02:51:48.342Z,99773.39
2018-09-22T02:52:19.462Z,99772.08
2018-09-22T02:52:50.572Z,99768.55
2018-09-22T02:53:21.687Z,99766.42
2018-09-22T02:53:52.778Z,99772.01
2018-09-22T02:54:23.907Z,99770.30
2018-09-22T02:54:55.013Z,99773.80
2018-09-22T02:55:26.183Z,99765.05
2018-09-22T02:55:57.293Z,99765.52
2018-09-22T02:56:28.391Z,99768.91
2018-09-22T02:56:59.604Z,99763.66
2018-09-22T02:57:30.661Z,99766.62
2018-09-22T02:58:01.759Z,99764.33
2018-09-22T02:58:32.854Z,99762.90
2018-09-22T02:59:03.985Z,99765.92
2018-09-22T02:59:35.082Z,99765.39
2018-09-22T03:00:06.196Z,99765.78
2018-09-22T03:00:37.291Z,99768.41
2018-09-22T03:01:08.448Z,99768.81
2018-09-22T03:01:39.615Z,99770.13
2018-09-22T03:02:10.742Z,99767.64
2018-09-22T03:02:41.843Z,99767.64
2018-09-22T03:03:12.942Z,99762.90
2018-09-22T03:03:44.062Z,99772.48
2018-09-22T03:04:15.161Z,99768.16
2018-09-22T03:04:46.275Z,99767.68
2018-09-22T03:05:17.379Z,99765.05
2018-09-22T03:05:48.491Z,99771.58
2018-09-22T03:06:19.612Z,99766.33
2018-09-22T03:06:50.793Z,99764.62
2018-09-22T03:07:21.883Z,99770.38
2018-09-22T03:07:53.041Z,99770.95
2018-09-22T03:08:24.148Z,99766.69
2018-09-22T03:08:55.278Z,99765.84
2018-09-22T03:09:26.375Z,99768.91
2018-09-22T03:09:57.490Z,99770.19
2018-09-22T03:10:28.594Z,99766.28
2018-09-22T03:10:59.696Z,99758.95
2018-09-22T03:11:30.804Z,99762.89
2018-09-22T03:12:01.954Z,99764.20
2018-09-22T03:12:33.060Z,99761.51
2018-09-22T03:13:04.171Z,99762.75
2018-09-22T03:13:35.268Z,99763.55
2018-09-22T03:14:06.426Z,99763.01
2018-09-22T03:14:37.556Z,99762.50
2018-09-22T03:15:09.002Z,99765.53
2018-09-22T03:15:39.790Z,99760.27
2018-09-22T03:16:10.891Z,99761.70
2018-09-22T03:16:42.004Z,99758.70
2018-09-22T03:17:13.200Z,99758.30
2018-09-22T03:17:44.316Z,99759.61
2018-09-22T03:18:15.420Z,99759.69
2018-09-22T03:18:46.523Z,99761.44
2018-09-22T03:19:17.699Z,99759.36
2018-09-22T03:19:48.807Z,99751.98
2018-09-22T03:20:19.936Z,99752.90
2018-09-22T03:20:51.095Z,99759.53
2018-09-22T03:21:22.218Z,99755.59
2018-09-22T03:21:53.318Z,99757.34
2018-09-22T03:22:24.468Z,99764.45
2018-09-22T03:22:55.585Z,99758.33
2018-09-22T03:23:26.687Z,99760.95
2018-09-22T03:23:57.792Z,99761.42
2018-09-22T03:24:28.965Z,99758.80
2018-09-22T03:25:00.110Z,99758.39
2018-09-22T03:25:31.216Z,99754.93
2018-09-22T03:26:02.321Z,99761.94
2018-09-22T03:26:33.419Z,99755.77
2018-09-22T03:27:04.584Z,99755.77
2018-09-22T03:27:35.678Z,99750.41
2018-09-22T03:28:06.825Z,99757.68
2018-09-22T03:28:37.926Z,99752.32
2018-09-22T03:29:09.027Z,99760.93
2018-09-22T03:29:40.189Z,99755.61
2018-09-22T03:30:11.407Z,99757.76
2018-09-22T03:30:42.519Z,99753.38
2018-09-22T03:31:13.631Z,99760.38
2018-09-22T03:31:44.722Z,99753.48
2018-09-22T03:32:15.836Z,99759.61
2018-09-22T03:32:46.974Z,99761.84
2018-09-22T03:33:18.097Z,99758.30
2018-09-22T03:33:49.184Z,99764.87
2018-09-22T03:34:20.266Z,99761.44
2018-09-22T03:34:51.437Z,99768.00
2018-09-22T03:35:22.535Z,99758.81
2018-09-22T03:35:53.635Z,99763.66
2018-09-22T03:36:24.779Z,99762.75
2018-09-22T03:36:55.922Z,99763.73
2018-09-22T03:37:27.017Z,99765.92
2018-09-22T03:37:58.126Z,99768.00
2018-09-22T03:38:29.266Z,99764.94
2018-09-22T03:39:00.366Z,99757.90
2018-09-22T03:39:31.469Z,99765.78
2018-09-22T03:40:02.562Z,99762.23
2018-09-22T03:40:33.717Z,99764.53
2018-09-22T03:41:04.891Z,99767.16
2018-09-22T03:41:36.055Z,99761.58
2018-09-22T03:42:07.157Z,99760.66
2018-09-22T03:42:38.284Z,99765.78
2018-09-22T03:43:09.401Z,99763.41
2018-09-22T03:43:40.541Z,99764.73
2018-09-22T03:44:11.650Z,99765.13
2018-09-22T03:44:42.756Z,99763.81
2018-09-22T03:45:13.899Z,99765.05
2018-09-22T03:45:45.248Z,99762.50
2018-09-22T03:46:16.361Z,99759.47
2018-09-22T03:46:47.454Z,99767.02
2018-09-22T03:47:18.562Z,99765.78
2018-09-22T03:47:49.724Z,99762.34
2018-09-22T03:48:20.931Z,99764.06
2018-09-22T03:48:52.065Z,99761.51
2018-09-22T03:49:23.231Z,99762.82
2018-09-22T03:49:54.336Z,99762.34
2018-09-22T03:50:25.441Z,99762.23
2018-09-22T03:50:56.527Z,99766.11
2018-09-22T03:51:27.642Z,99763.01
2018-09-22T03:51:58.768Z,99761.77
2018-09-22T03:52:29.874Z,99766.58
2018-09-22T03:53:01.035Z,99765.70
2018-09-22T03:53:32.199Z,99765.78
2018-09-22T03:54:03.350Z,99764.53
2018-09-22T03:54:34.514Z,99764.61
2018-09-22T03:55:05.614Z,99765.52
2018-09-22T03:55:36.724Z,99762.56
2018-09-22T03:56:07.881Z,99761.75
2018-09-22T03:56:39.014Z,99764.05
2018-09-22T03:57:10.146Z,99760.19
2018-09-22T03:57:41.239Z,99764.55
2018-09-22T03:58:12.337Z,99761.09
2018-09-22T03:58:43.430Z,99766.34
2018-09-22T03:59:14.575Z,99768.09
2018-09-22T03:59:45.686Z,99765.61
2018-09-22T04:00:16.783Z,99770.02
2018-09-22T04:00:47.926Z,99765.27
2018-09-22T04:01:19.027Z,99764.40
2018-09-22T04:01:50.167Z,99763.16
2018-09-22T04:02:21.330Z,99764.03
2018-09-22T04:02:52.421Z,99760.53
2018-09-22T04:03:23.524Z,99759.22
2018-09-22T04:03:54.616Z,99763.16
2018-09-22T04:04:25.719Z,99766.66
2018-09-22T04:04:56.834Z,99764.03
2018-09-22T04:05:27.980Z,99757.06
2018-09-22T04:05:59.115Z,99762.72
2018-09-22T04:06:30.341Z,99764.47
2018-09-22T04:07:01.459Z,99759.22
2018-09-22T04:07:32.613Z,99759.22
2018-09-22T04:08:03.714Z,99763.63
2018-09-22T04:08:34.836Z,99758.45
2018-09-22T04:09:05.931Z,99758.88
2018-09-22T04:09:37.055Z,99762.83
2018-09-22T04:10:08.156Z,99761.51
2018-09-22T04:10:39.261Z,99761.65
2018-09-22T04:11:10.434Z,99760.73
2018-09-22T04:11:41.531Z,99762.48
2018-09-22T04:12:12.634Z,99758.55
2018-09-22T04:12:43.772Z,99759.42
2018-09-22T04:13:14.876Z,99765.05
2018-09-22T04:13:46.036Z,99758.48
2018-09-22T04:14:17.140Z,99759.76
2018-09-22T04:14:48.243Z,99759.29
2018-09-22T04:15:19.394Z,99761.84
2018-09-22T04:15:50.516Z,99755.35
2018-09-22T04:16:21.612Z,99755.35
2018-09-22T04:16:52.701Z,99761.41
2018-09-22T04:17:23.795Z,99757.47
2018-09-22T04:17:54.922Z,99763.16
2018-09-22T04:18:26.082Z,99760.94
2018-09-22T04:18:57.193Z,99760.02
2018-09-22T04:19:28.287Z,99759.88
2018-09-22T04:19:59.393Z,99763.78
2018-09-22T04:20:30.595Z,99759.31
2018-09-22T04:21:01.714Z,99762.73
2018-09-22T04:21:32.869Z,99761.83
2018-09-22T04:22:03.974Z,99766.53
2018-09-22T04:22:35.067Z,99757.64
2018-09-22T04:23:06.157Z,99761.66
2018-09-22T04:23:37.301Z,99764.30
2018-09-22T04:24:08.447Z,99762.00
2018-09-22T04:24:39.616Z,99764.00
2018-09-22T04:25:10.718Z,99764.28
2018-09-22T04:25:41.832Z,99762.64
2018-09-22T04:26:13.004Z,99765.46
2018-09-22T04:26:44.124Z,99762.05
2018-09-22T04:27:15.239Z,99762.70
2018-09-22T04:27:46.412Z,99766.40
2018-09-22T04:28:17.511Z,99759.62
2018-09-22T04:28:48.721Z,99754.86
2018-09-22T04:29:19.823Z,99754.05
2018-09-22T04:29:50.988Z,99756.08
2018-09-22T04:30:22.166Z,99756.95
2018-09-22T04:30:53.259Z,99753.69
2018-09-22T04:31:24.427Z,99757.49
2018-09-22T04:31:55.542Z,99757.14
2018-09-22T04:32:26.648Z,99755.32
2018-09-22T04:32:57.773Z,99753.97
2018-09-22T04:33:28.898Z,99758.27
2018-09-22T04:34:00.107Z,99755.00
2018-09-22T04:34:31.224Z,99759.63
2018-09-22T04:35:02.343Z,99757.20
2018-09-22T04:35:33.506Z,99757.79
2018-09-22T04:36:04.607Z,99756.75
2018-09-22T04:36:35.722Z,99750.84
2018-09-22T04:37:06.832Z,99751.37
2018-09-22T04:37:37.937Z,99758.48
2018-09-22T04:38:09.072Z,99759.25
2018-09-22T04:38:40.178Z,99759.89
2018-09-22T04:39:11.311Z,99751.69
2018-09-22T04:39:42.484Z,99756.92
2018-09-22T04:40:13.653Z,99755.44
2018-09-22T04:40:44.746Z,99754.64
2018-09-22T04:41:15.851Z,99748.42
2018-09-22T04:41:46.971Z,99755.67
2018-09-22T04:42:18.066Z,99750.53
2018-09-22T04:42:49.153Z,99752.48
2018-09-22T04:43:20.266Z,99756.57
2018-09-22T04:43:51.357Z,99750.14
2018-09-22T04:44:22.485Z,99755.61
2018-09-22T04:44:53.588Z,99751.18
2018-09-22T04:45:24.715Z,99752.39
2018-09-22T04:45:55.880Z,99759.30
2018-09-22T04:46:27.046Z,99753.02
2018-09-22T04:46:58.147Z,99754.64
2018-09-22T04:47:29.261Z,99750.16
2018-09-22T04:48:00.368Z,99750.77
2018-09-22T04:48:31.492Z,99749.63
2018-09-22T04:49:02.605Z,99744.09
2018-09-22T04:49:33.708Z,99748.35
2018-09-22T04:50:04.875Z,99746.41
2018-09-22T04:50:36.000Z,99750.53
2018-09-22T04:51:07.202Z,99738.06
2018-09-22T04:51:38.388Z,99746.57
2018-09-22T04:52:09.500Z,99746.00
2018-09-22T04:52:40.618Z,99746.69
2018-09-22T04:53:11.780Z,99749.09
2018-09-22T04:53:42.902Z,99744.65
2018-09-22T04:54:14.014Z,99743.10
2018-09-22T04:54:45.116Z,99742.39
2018-09-22T04:55:16.302Z,99739.36
2018-09-22T04:55:47.423Z,99739.67
2018-09-22T04:56:18.512Z,99739.76
2018-09-22T04:56:49.643Z,99742.30
2018-09-22T04:57:20.803Z,99739.28
2018-09-22T04:57:51.964Z,99743.10
2018-09-22T04:58:23.133Z,99741.48
2018-09-22T04:58:54.258Z,99741.64
2018-09-22T04:59:25.362Z,99739.40
2018-09-22T04:59:56.464Z,99738.80
2018-09-22T05:00:27.636Z,99738.39
2018-09-22T05:00:58.804Z,99738.95
2018-09-22T05:01:29.968Z,99742.51
2018-09-22T05:02:01.139Z,99743.59
2018-09-22T05:02:32.280Z,99742.28
2018-09-22T05:03:03.401Z,99745.84
2018-09-22T05:03:34.523Z,99742.72
2018-09-22T05:04:05.701Z,99744.52
2018-09-22T05:04:36.802Z,99746.23
2018-09-22T05:05:07.971Z,99741.72
2018-09-22T05:05:39.107Z,99746.86
2018-09-22T05:06:10.218Z,99741.03
2018-09-22T05:06:41.386Z,99749.32
2018-09-22T05:07:12.528Z,99742.61
2018-09-22T05:07:43.654Z,99746.92
2018-09-22T05:08:14.761Z,99743.13
2018-09-22T05:08:45.891Z,99743.27
2018-09-22T05:09:17.205Z,99745.06
2018-09-22T05:09:48.318Z,99742.91
2018-09-22T05:10:19.428Z,99746.06
2018-09-22T05:10:50.626Z,99746.98
2018-09-22T05:11:21.797Z,99738.86
2018-09-22T05:11:53.004Z,99740.57
2018-09-22T05:12:25.265Z,99745.27
2018-09-22T05:12:56.436Z,99743.52
2018-09-22T05:13:27.707Z,99742.59
2018-09-22T05:13:58.831Z,99744.52
2018-09-22T05:14:29.941Z,99744.13
2018-09-22T05:15:01.047Z,99748.99
2018-09-22T05:15:32.209Z,99744.13
2018-09-22T05:16:03.320Z,99745.12
2018-09-22T05:16:34.421Z,99740.30
2018-09-22T05:17:05.598Z,99750.08
2018-09-22T05:17:36.690Z,99744.02
2018-09-22T05:18:07.891Z,99744.55
2018-09-22T05:18:38.992Z,99746.81
2018-09-22T05:19:10.103Z,99748.50
2018-09-22T05:19:41.211Z,99744.50
2018-09-22T05:20:12.353Z,99745.55
2018-09-22T05:20:43.454Z,99744.31
2018-09-22T05:21:14.558Z,99746.86
2018-09-22T05:21:45.655Z,99746.02
2018-09-22T05:22:16.768Z,99746.02
2018-09-22T05:22:47.877Z,99747.02
2018-09-22T05:23:19.053Z,99748.42
2018-09-22T05:23:50.184Z,99750.18
2018-09-22T05:24:21.337Z,99746.79
2018-09-22T05:24:52.553Z,99748.52
2018-09-22T05:25:23.625Z,99746.89
2018-09-22T05:25:54.732Z,99747.80
2018-09-22T05:26:25.828Z,99746.89
2018-09-22T05:26:57.012Z,99750.00
2018-09-22T05:27:28.161Z,99740.78
2018-09-22T05:27:59.277Z,99745.05
2018-09-22T05:28:30.397Z,99748.03
2018-09-22T05:29:01.567Z,99749.18
2018-09-22T05:29:32.673Z,99753.00
2018-09-22T05:30:03.791Z,99753.77
2018-09-22T05:30:34.904Z,99751.13
2018-09-22T05:31:06.023Z,99755.08
2018-09-22T05:31:37.131Z,99748.50
2018-09-22T05:32:08.240Z,99757.34
2018-09-22T05:32:39.483Z,99749.50
2018-09-22T05:33:10.577Z,99753.45
2018-09-22T05:33:41.694Z,99752.13
2018-09-22T05:34:12.816Z,99754.71
2018-09-22T05:34:43.942Z,99757.97
2018-09-22T05:35:15.040Z,99753.42
2018-09-22T05:35:46.138Z,99761.78
2018-09-22T05:36:17.236Z,99761.04
2018-09-22T05:36:48.355Z,99760.35
2018-09-22T05:37:19.468Z,99760.66
2018-09-22T05:37:50.624Z,99758.17
2018-09-22T05:38:21.742Z,99758.97
2018-09-22T05:38:53.839Z,99762.39
2018-09-22T05:39:25.023Z,99762.30
2018-09-22T05:39:56.218Z,99760.06
2018-09-22T05:40:27.309Z,99759.89
2018-09-22T05:40:58.418Z,99770.83
2018-09-22T05:41:29.568Z,99758.45
2018-09-22T05:42:00.717Z,99758.05
2018-09-22T05:42:31.890Z,99757.57
2018-09-22T05:43:03.042Z,99763.23
2018-09-22T05:43:34.289Z,99758.36
2018-09-22T05:44:05.402Z,99760.47
2018-09-22T05:44:36.565Z,99760.47
2018-09-22T05:45:07.701Z,99760.77
2018-09-22T05:45:38.892Z,99763.41
2018-09-22T05:46:10.067Z,99763.41
2018-09-22T05:46:41.236Z,99761.78
2018-09-22T05:47:12.386Z,99759.20
2018-09-22T05:47:43.569Z,99760.20
2018-09-22T05:48:14.791Z,99760.60
2018-09-22T05:48:45.946Z,99765.48
2018-09-22T05:49:17.069Z,99761.22
2018-09-22T05:49:48.176Z,99763.01
2018-09-22T05:50:19.384Z,99763.41
2018-09-22T05:50:50.551Z,99763.77
2018-09-22T05:51:21.687Z,99763.77
2018-09-22T05:51:52.822Z,99760.38
2018-09-22T05:52:23.992Z,99765.77
2018-09-22T05:52:55.110Z,99764.46
2018-09-22T05:53:26.282Z,99765.55
2018-09-22T05:53:57.395Z,99761.28
2018-09-22T05:54:28.491Z,99756.55
2018-09-22T05:54:59.606Z,99765.84
2018-09-22T05:55:30.735Z,99768.48
2018-09-22T05:56:01.843Z,99758.34
2018-09-22T05:56:33.010Z,99770.98
2018-09-22T05:57:04.114Z,99765.72
2018-09-22T05:57:35.222Z,99765.55
2018-09-22T05:58:06.404Z,99761.30
2018-09-22T05:58:37.513Z,99761.91
2018-09-22T05:59:08.821Z,99760.30
2018-09-22T05:59:40.016Z,99762.63
2018-09-22T06:00:11.247Z,99763.64
2018-09-22T06:00:42.346Z,99762.41
2018-09-22T06:01:13.495Z,99765.66
2018-09-22T06:01:44.602Z,99759.86
2018-09-22T06:02:15.699Z,99767.20
2018-09-22T06:02:46.806Z,99759.51
2018-09-22T06:03:18.081Z,99765.06
2018-09-22T06:03:49.393Z,99760.02
2018-09-22T06:04:20.462Z,99769.32
2018-09-22T06:04:51.574Z,99764.48
2018-09-22T06:05:22.739Z,99761.48